createdAt,value
2023-05-19T00:00:33.721Z,9.77
2023-05-19T00:03:00.465Z,8.68
2023-05-19T00:05:27.242Z,8.20
2023-05-19T00:07:55.180Z,8.67
2023-05-19T00:10:21.771Z,8.50
2023-05-19T00:12:49.169Z,9.65
2023-05-19T00:15:15.740Z,9.23
2023-05-19T00:17:42.154Z,9.25
2023-05-19T00:20:08.912Z,9.40
2023-05-19T00:22:35.334Z,9.73
2023-05-19T00:25:01.732Z,9.60
2023-05-19T00:27:28.228Z,9.57
2023-05-19T00:29:54.609Z,9.50
2023-05-19T00:32:20.964Z,10.17
2023-05-19T00:34:47.400Z,9.65
2023-05-19T00:37:13.776Z,6.25
2023-05-19T00:39:40.170Z,10.52
2023-05-19T00:42:06.696Z,9.65
2023-05-19T00:44:33.093Z,10.07
2023-05-19T00:46:59.567Z,10.20
2023-05-19T00:49:26.141Z,10.45
2023-05-19T00:51:52.932Z,9.73
2023-05-19T00:54:20.496Z,10.52
2023-05-19T00:56:47.253Z,10.37
2023-05-19T00:59:13.636Z,10.75
2023-05-19T01:01:40.025Z,11.63
2023-05-19T01:04:06.574Z,9.43
2023-05-19T01:06:33.367Z,11.15
2023-05-19T01:08:59.761Z,10.80
2023-05-19T01:11:26.229Z,10.80
2023-05-19T01:13:52.643Z,11.00
2023-05-19T01:16:22.675Z,11.75
2023-05-19T01:19:07.408Z,11.60
2023-05-19T01:21:52.204Z,10.10
2023-05-19T01:24:21.417Z,11.02
2023-05-19T01:27:09.415Z,11.23
2023-05-19T01:29:35.914Z,11.55
2023-05-19T01:32:04.632Z,11.25
2023-05-19T01:34:31.239Z,11.90
2023-05-19T01:36:58.803Z,11.38
2023-05-19T01:39:25.512Z,11.27
2023-05-19T01:41:52.244Z,11.25
2023-05-19T01:44:19.148Z,10.70
2023-05-19T01:46:45.672Z,11.43
2023-05-19T01:49:12.740Z,12.27
2023-05-19T01:51:39.214Z,11.85
2023-05-19T01:54:05.628Z,12.07
2023-05-19T01:56:52.352Z,135.43
2023-05-19T01:59:34.304Z,155.37
2023-05-19T02:02:02.284Z,175.30
2023-05-19T02:04:38.129Z,134.27
2023-05-19T02:07:07.781Z,126.13
2023-05-19T02:09:44.913Z,41.42
2023-05-19T02:12:11.381Z,106.50
2023-05-19T02:15:00.604Z,166.48
2023-05-19T02:17:29.344Z,151.60
2023-05-19T02:19:55.778Z,158.13
2023-05-19T02:22:22.159Z,140.20
2023-05-19T02:24:48.567Z,176.30
2023-05-19T02:27:14.925Z,23.52
2023-05-19T02:29:41.286Z,57.05
2023-05-19T02:32:07.861Z,138.43
2023-05-19T02:34:34.323Z,192.85
2023-05-19T02:37:00.741Z,128.77
2023-05-19T02:39:27.321Z,67.07
2023-05-19T02:41:53.753Z,105.88
2023-05-19T02:44:20.170Z,129.15
2023-05-19T02:46:46.901Z,150.50
2023-05-19T02:49:13.464Z,161.70
2023-05-19T02:51:39.825Z,158.82
2023-05-19T02:54:06.282Z,150.50
2023-05-19T02:56:32.689Z,16.48
2023-05-19T02:58:59.084Z,25.48
2023-05-19T03:01:25.526Z,67.10
2023-05-19T03:03:52.033Z,67.90
2023-05-19T03:06:18.784Z,66.38
2023-05-19T03:08:45.334Z,58.63
2023-05-19T03:11:11.824Z,47.80
2023-05-19T03:13:38.226Z,36.80
2023-05-19T03:16:04.781Z,34.75
2023-05-19T03:18:31.214Z,35.33
2023-05-19T03:20:57.620Z,34.35
2023-05-19T03:23:24.053Z,43.47
2023-05-19T03:25:50.446Z,28.70
2023-05-19T03:28:16.816Z,18.98
2023-05-19T03:30:43.323Z,20.92
2023-05-19T03:33:09.788Z,19.42
2023-05-19T03:35:36.347Z,17.48
2023-05-19T03:38:02.906Z,15.97
2023-05-19T03:40:29.296Z,15.70
2023-05-19T03:42:55.692Z,19.90
2023-05-19T03:45:22.169Z,16.58
2023-05-19T03:47:48.643Z,19.80
2023-05-19T03:50:15.051Z,18.73
2023-05-19T03:52:41.513Z,19.98
2023-05-19T03:55:08.227Z,19.88
2023-05-19T03:57:34.616Z,17.48
2023-05-19T04:00:01.128Z,13.93
2023-05-19T04:02:27.641Z,12.67
2023-05-19T04:04:54.347Z,15.80
2023-05-19T04:07:20.838Z,14.20
2023-05-19T04:09:47.275Z,14.10
2023-05-19T04:12:13.664Z,15.90
2023-05-19T04:14:40.159Z,15.87
2023-05-19T04:17:06.549Z,19.05
2023-05-19T04:19:32.964Z,21.67
2023-05-19T04:21:59.460Z,20.98
2023-05-19T04:24:25.850Z,22.13
2023-05-19T04:26:52.431Z,21.67
2023-05-19T04:29:18.919Z,19.95
2023-05-19T04:31:45.630Z,15.10
2023-05-19T04:34:12.078Z,15.00
2023-05-19T04:36:39.115Z,16.35
2023-05-19T04:39:06.089Z,14.20
2023-05-19T04:41:32.640Z,13.60
2023-05-19T04:43:59.178Z,13.95
2023-05-19T04:46:26.449Z,13.18
2023-05-19T04:48:53.075Z,15.55
2023-05-19T04:51:19.648Z,15.50
2023-05-19T04:53:46.049Z,15.05
2023-05-19T04:56:12.447Z,14.45
2023-05-19T04:58:40.598Z,13.77
2023-05-19T05:01:08.251Z,13.80
2023-05-19T05:03:34.722Z,15.30
2023-05-19T05:06:01.337Z,13.65
2023-05-19T05:08:27.763Z,15.18
2023-05-19T05:10:54.344Z,14.70
2023-05-19T05:13:21.874Z,13.75
2023-05-19T05:15:48.498Z,14.83
2023-05-19T05:18:15.415Z,14.73
2023-05-19T05:20:46.139Z,13.18
2023-05-19T05:23:12.716Z,12.07
2023-05-19T05:25:39.278Z,13.40
2023-05-19T05:28:05.692Z,13.23
2023-05-19T05:30:33.265Z,14.15
2023-05-19T05:32:59.771Z,14.50
2023-05-19T05:35:26.271Z,14.82
2023-05-19T05:37:52.669Z,14.10
2023-05-19T05:40:19.161Z,14.37
2023-05-19T05:42:45.626Z,15.07
2023-05-19T05:45:12.120Z,16.83
2023-05-19T05:47:38.635Z,13.75
2023-05-19T05:50:06.132Z,16.13
2023-05-19T05:52:32.888Z,11.93
2023-05-19T05:54:59.434Z,11.85
2023-05-19T05:57:25.897Z,11.00
2023-05-19T05:59:52.358Z,10.00
2023-05-19T06:02:18.908Z,10.05
2023-05-19T06:04:45.380Z,8.70
2023-05-19T06:07:11.923Z,11.18
2023-05-19T06:09:38.342Z,11.95
2023-05-19T06:12:05.318Z,12.25
2023-05-19T06:14:31.710Z,13.10
2023-05-19T06:16:58.104Z,13.07
2023-05-19T06:19:24.675Z,11.77
2023-05-19T06:21:51.578Z,12.35
2023-05-19T06:24:17.960Z,12.52
2023-05-19T06:26:44.432Z,10.93
2023-05-19T06:29:10.828Z,11.43
2023-05-19T06:31:37.226Z,13.25
2023-05-19T06:34:03.744Z,12.38
2023-05-19T06:36:30.179Z,12.20
2023-05-19T06:38:56.562Z,10.77
2023-05-19T06:41:23.099Z,11.43
2023-05-19T06:43:49.637Z,11.43
2023-05-19T06:46:16.076Z,13.73
2023-05-19T06:48:42.591Z,11.52
2023-05-19T06:51:08.940Z,12.40
2023-05-19T06:53:35.350Z,14.00
2023-05-19T06:56:01.823Z,12.80
2023-05-19T06:58:28.282Z,13.48
2023-05-19T07:00:54.661Z,12.90
2023-05-19T07:03:21.303Z,12.70
2023-05-19T07:05:48.100Z,12.70
2023-05-19T07:08:14.548Z,12.80
2023-05-19T07:10:40.972Z,13.13
2023-05-19T07:13:07.337Z,10.02
2023-05-19T07:15:36.812Z,12.35
2023-05-19T07:18:03.364Z,12.27
2023-05-19T07:20:29.804Z,12.35
2023-05-19T07:22:56.196Z,11.98
2023-05-19T07:25:23.250Z,12.20
2023-05-19T07:27:55.627Z,11.73
2023-05-19T07:30:22.010Z,11.70
2023-05-19T07:32:48.617Z,13.40
2023-05-19T07:35:15.025Z,13.43
2023-05-19T07:37:41.417Z,12.50
2023-05-19T07:40:08.151Z,13.00
2023-05-19T07:42:34.706Z,12.17
2023-05-19T07:45:01.091Z,11.70
2023-05-19T07:47:27.628Z,11.68
2023-05-19T07:49:54.064Z,10.13
2023-05-19T07:52:20.491Z,11.43
2023-05-19T07:54:46.920Z,10.57
2023-05-19T07:57:13.390Z,10.27
2023-05-19T07:59:39.943Z,9.93
2023-05-19T08:02:06.524Z,11.60
2023-05-19T08:04:33.199Z,9.68
2023-05-19T08:06:59.695Z,11.00
2023-05-19T08:09:26.119Z,10.95
2023-05-19T08:11:52.530Z,10.00
2023-05-19T08:14:18.937Z,10.35
2023-05-19T08:16:45.342Z,10.20
2023-05-19T08:19:11.767Z,9.03
2023-05-19T08:21:38.180Z,9.30
2023-05-19T08:24:04.752Z,10.85
2023-05-19T08:26:31.154Z,8.82
2023-05-19T08:28:57.789Z,9.73
2023-05-19T08:31:24.318Z,9.53
2023-05-19T08:33:50.880Z,8.68
2023-05-19T08:36:17.281Z,8.57
2023-05-19T08:38:43.723Z,9.80
2023-05-19T08:41:10.173Z,8.73
2023-05-19T08:43:36.834Z,10.13
2023-05-19T08:46:03.756Z,9.35
2023-05-19T08:48:30.255Z,8.30
2023-05-19T08:51:11.236Z,9.68
2023-05-19T08:53:39.455Z,8.07
2023-05-19T08:56:11.468Z,9.53
2023-05-19T08:58:42.385Z,9.60
2023-05-19T09:01:09.395Z,10.10
2023-05-19T09:03:36.515Z,10.55
2023-05-19T09:06:04.165Z,10.25
2023-05-19T09:08:30.641Z,7.67
2023-05-19T09:10:57.015Z,10.07
2023-05-19T09:13:23.800Z,9.65
2023-05-19T09:15:51.456Z,8.75
2023-05-19T09:18:17.880Z,11.75
2023-05-19T09:20:44.760Z,9.00
2023-05-19T09:23:14.524Z,9.82
2023-05-19T09:25:47.609Z,9.23
2023-05-19T09:28:14.018Z,15.38
2023-05-19T09:30:40.457Z,19.38
2023-05-19T09:33:06.998Z,21.23
2023-05-19T09:35:34.810Z,18.50
2023-05-19T09:38:01.511Z,17.02
2023-05-19T09:40:28.352Z,16.58
2023-05-19T09:42:54.834Z,18.55
2023-05-19T09:45:21.278Z,12.77
2023-05-19T09:47:47.757Z,10.00
2023-05-19T09:50:14.272Z,10.35
2023-05-19T09:52:43.737Z,7.68
2023-05-19T09:55:11.641Z,9.77
2023-05-19T09:57:38.624Z,8.87
2023-05-19T10:00:05.860Z,7.72
2023-05-19T10:02:32.892Z,10.68
2023-05-19T10:05:00.242Z,9.38
2023-05-19T10:07:26.898Z,8.02
2023-05-19T10:09:56.121Z,6.63
2023-05-19T10:12:23.870Z,9.18
2023-05-19T10:14:50.391Z,13.10
2023-05-19T10:17:16.893Z,15.65
2023-05-19T10:19:43.842Z,18.75
2023-05-19T10:22:10.243Z,14.70
2023-05-19T10:24:37.682Z,8.55
2023-05-19T10:27:06.807Z,7.60
2023-05-19T10:29:48.690Z,7.30
2023-05-19T10:32:17.618Z,7.88
2023-05-19T10:34:59.547Z,7.77
2023-05-19T10:37:37.596Z,8.07
2023-05-19T10:40:10.882Z,8.23
2023-05-19T10:42:44.084Z,7.03
2023-05-19T10:45:24.546Z,6.80
2023-05-19T10:47:51.124Z,9.53
2023-05-19T10:50:17.647Z,8.93
2023-05-19T10:52:44.100Z,9.93
2023-05-19T10:55:12.946Z,7.60
2023-05-19T10:57:53.260Z,8.55
2023-05-19T11:00:29.921Z,8.87
2023-05-19T11:03:12.768Z,7.40
2023-05-19T11:05:39.403Z,8.77
2023-05-19T11:08:06.292Z,6.57
2023-05-19T11:10:32.719Z,6.53
2023-05-19T11:12:59.123Z,6.70
2023-05-19T11:15:26.503Z,5.95
2023-05-19T11:17:53.256Z,6.95
2023-05-19T11:20:26.533Z,5.47
2023-05-19T11:23:14.943Z,6.40
2023-05-19T11:25:44.263Z,6.77
2023-05-19T11:28:10.898Z,6.47
2023-05-19T11:30:37.694Z,6.97
2023-05-19T11:33:04.655Z,6.80
2023-05-19T11:35:33.237Z,6.65
2023-05-19T11:38:01.880Z,5.67
2023-05-19T11:40:29.054Z,5.70
2023-05-19T11:42:55.782Z,6.45
2023-05-19T11:45:25.635Z,6.55
2023-05-19T11:48:01.395Z,6.88
2023-05-19T11:50:30.621Z,6.80
2023-05-19T11:52:57.086Z,6.45
2023-05-19T11:55:23.630Z,6.53
2023-05-19T11:58:02.973Z,7.10
2023-05-19T12:00:34.734Z,6.07
2023-05-19T12:03:01.231Z,6.70
2023-05-19T12:05:27.819Z,5.95
2023-05-19T12:07:54.247Z,7.05
2023-05-19T12:10:24.861Z,6.57
2023-05-19T12:12:51.288Z,6.32
2023-05-19T12:15:21.247Z,6.53
2023-05-19T12:17:51.422Z,6.10
2023-05-19T12:20:20.962Z,7.13
2023-05-19T12:22:47.750Z,6.50
2023-05-19T12:25:15.309Z,38.70
2023-05-19T12:27:42.982Z,109.57
2023-05-19T12:30:10.067Z,55.53
2023-05-19T12:32:36.810Z,11.75
2023-05-19T12:35:04.378Z,9.18
2023-05-19T12:37:30.867Z,6.60
2023-05-19T12:39:57.612Z,6.50
2023-05-19T12:42:26.582Z,6.22
2023-05-19T12:44:54.056Z,6.75
2023-05-19T12:47:21.013Z,8.20
2023-05-19T12:50:13.535Z,6.78
2023-05-19T12:52:44.149Z,5.60
2023-05-19T12:55:10.712Z,6.35
2023-05-19T12:57:38.540Z,5.53
2023-05-19T13:00:06.648Z,6.95
2023-05-19T13:02:34.721Z,5.68
2023-05-19T13:05:02.647Z,4.80
2023-05-19T13:07:29.884Z,5.93
2023-05-19T13:09:56.290Z,6.90
2023-05-19T13:12:23.367Z,6.00
2023-05-19T13:14:50.476Z,7.47
